sensor_id;sensor_type;location;lat;lon;timestamp;temperature;humidity
52879;DHT22;38747;53.140;6.498;2023-02-17T00:00:24;8.80;99.90
52879;DHT22;38747;53.140;6.498;2023-02-17T00:02:55;8.80;99.90
52879;DHT22;38747;53.140;6.498;2023-02-17T00:05:21;8.80;99.90
52879;DHT22;38747;53.140;6.498;2023-02-17T00:07:47;8.80;99.90
52879;DHT22;38747;53.140;6.498;2023-02-17T00:10:12;8.80;99.90
52879;DHT22;38747;53.140;6.498;2023-02-17T00:12:38;8.80;99.90
52879;DHT22;38747;53.140;6.498;2023-02-17T00:15:04;8.80;99.90
52879;DHT22;38747;53.140;6.498;2023-02-17T00:17:30;8.80;99.90
52879;DHT22;38747;53.140;6.498;2023-02-17T00:19:55;8.80;99.90
52879;DHT22;38747;53.140;6.498;2023-02-17T00:22:21;8.80;99.90
52879;DHT22;38747;53.140;6.498;2023-02-17T00:24:46;8.80;99.90
52879;DHT22;38747;53.140;6.498;2023-02-17T00:27:12;8.80;99.90
52879;DHT22;38747;53.140;6.498;2023-02-17T00:29:38;8.80;99.90
52879;DHT22;38747;53.140;6.498;2023-02-17T00:32:03;8.90;99.90
52879;DHT22;38747;53.140;6.498;2023-02-17T00:34:29;8.80;99.90
52879;DHT22;38747;53.140;6.498;2023-02-17T00:36:55;8.80;99.90
52879;DHT22;38747;53.140;6.498;2023-02-17T00:39:20;8.80;99.90
52879;DHT22;38747;53.140;6.498;2023-02-17T00:41:46;8.80;99.90
52879;DHT22;38747;53.140;6.498;2023-02-17T00:44:17;8.80;99.90
52879;DHT22;38747;53.140;6.498;2023-02-17T00:46:44;8.80;99.90
52879;DHT22;38747;53.140;6.498;2023-02-17T00:49:19;8.80;99.90
52879;DHT22;38747;53.140;6.498;2023-02-17T00:51:45;8.80;99.90
52879;DHT22;38747;53.140;6.498;2023-02-17T00:54:11;8.80;99.90
52879;DHT22;38747;53.140;6.498;2023-02-17T00:56:37;8.80;99.90
52879;DHT22;38747;53.140;6.498;2023-02-17T00:59:03;8.80;99.90
52879;DHT22;38747;53.140;6.498;2023-02-17T01:01:29;8.80;99.90
52879;DHT22;38747;53.140;6.498;2023-02-17T01:03:55;8.80;99.90
52879;DHT22;38747;53.140;6.498;2023-02-17T01:06:30;8.80;99.90
52879;DHT22;38747;53.140;6.498;2023-02-17T01:08:56;8.80;99.90
52879;DHT22;38747;53.140;6.498;2023-02-17T01:11:27;8.80;99.90
52879;DHT22;38747;53.140;6.498;2023-02-17T01:13:55;8.80;99.90
52879;DHT22;38747;53.140;6.498;2023-02-17T01:16:42;8.90;99.90
52879;DHT22;38747;53.140;6.498;2023-02-17T01:19:11;8.90;99.90
52879;DHT22;38747;53.140;6.498;2023-02-17T01:21:37;8.80;99.90
52879;DHT22;38747;53.140;6.498;2023-02-17T01:24:05;8.80;99.90
52879;DHT22;38747;53.140;6.498;2023-02-17T01:26:32;8.90;99.90
52879;DHT22;38747;53.140;6.498;2023-02-17T01:28:59;8.90;99.90
52879;DHT22;38747;53.140;6.498;2023-02-17T01:31:25;8.90;99.90
52879;DHT22;38747;53.140;6.498;2023-02-17T01:33:55;8.90;99.90
52879;DHT22;38747;53.140;6.498;2023-02-17T01:36:21;8.90;99.90
52879;DHT22;38747;53.140;6.498;2023-02-17T01:38:47;8.90;99.90
52879;DHT22;38747;53.140;6.498;2023-02-17T01:41:14;8.90;99.90
52879;DHT22;38747;53.140;6.498;2023-02-17T01:43:40;8.90;99.90
52879;DHT22;38747;53.140;6.498;2023-02-17T01:46:07;8.90;99.90
52879;DHT22;38747;53.140;6.498;2023-02-17T01:48:46;8.90;99.90
52879;DHT22;38747;53.140;6.498;2023-02-17T01:51:21;8.90;99.90
52879;DHT22;38747;53.140;6.498;2023-02-17T01:53:52;8.90;99.90
52879;DHT22;38747;53.140;6.498;2023-02-17T01:56:21;8.90;99.90
52879;DHT22;38747;53.140;6.498;2023-02-17T01:58:52;9.00;99.90
52879;DHT22;38747;53.140;6.498;2023-02-17T02:01:19;9.00;99.90
52879;DHT22;38747;53.140;6.498;2023-02-17T02:03:45;9.00;99.90
52879;DHT22;38747;53.140;6.498;2023-02-17T02:06:15;9.00;99.90
52879;DHT22;38747;53.140;6.498;2023-02-17T02:08:55;9.00;99.90
52879;DHT22;38747;53.140;6.498;2023-02-17T02:11:22;9.10;99.90
52879;DHT22;38747;53.140;6.498;2023-02-17T02:13:49;9.00;99.90
52879;DHT22;38747;53.140;6.498;2023-02-17T02:16:28;9.00;99.90
52879;DHT22;38747;53.140;6.498;2023-02-17T02:19:22;9.00;99.90
52879;DHT22;38747;53.140;6.498;2023-02-17T02:27:41;9.00;99.90
52879;DHT22;38747;53.140;6.498;2023-02-17T02:33:31;9.00;99.90
52879;DHT22;38747;53.140;6.498;2023-02-17T02:36:14;9.00;99.90
52879;DHT22;38747;53.140;6.498;2023-02-17T02:41:33;9.00;99.90
52879;DHT22;38747;53.140;6.498;2023-02-17T02:44:04;9.10;99.90
52879;DHT22;38747;53.140;6.498;2023-02-17T02:46:30;9.10;99.90
52879;DHT22;38747;53.140;6.498;2023-02-17T02:48:56;9.00;99.90
52879;DHT22;38747;53.140;6.498;2023-02-17T02:59:51;9.00;99.90
52879;DHT22;38747;53.140;6.498;2023-02-17T03:02:24;9.00;99.90
52879;DHT22;38747;53.140;6.498;2023-02-17T03:07:40;9.00;99.90
52879;DHT22;38747;53.140;6.498;2023-02-17T03:10:09;9.00;99.90
52879;DHT22;38747;53.140;6.498;2023-02-17T03:12:36;9.00;99.90
52879;DHT22;38747;53.140;6.498;2023-02-17T03:15:25;9.00;99.90
52879;DHT22;38747;53.140;6.498;2023-02-17T03:17:54;9.00;99.90
52879;DHT22;38747;53.140;6.498;2023-02-17T03:20:20;9.00;99.90
52879;DHT22;38747;53.140;6.498;2023-02-17T03:22:46;9.00;99.90
52879;DHT22;38747;53.140;6.498;2023-02-17T03:25:13;8.90;99.90
52879;DHT22;38747;53.140;6.498;2023-02-17T03:27:39;9.00;99.90
52879;DHT22;38747;53.140;6.498;2023-02-17T03:30:05;9.00;99.90
52879;DHT22;38747;53.140;6.498;2023-02-17T03:32:31;8.90;99.90
52879;DHT22;38747;53.140;6.498;2023-02-17T03:34:57;9.00;99.90
52879;DHT22;38747;53.140;6.498;2023-02-17T03:37:23;9.00;99.90
52879;DHT22;38747;53.140;6.498;2023-02-17T03:39:48;9.00;99.90
52879;DHT22;38747;53.140;6.498;2023-02-17T03:42:14;9.00;99.90
52879;DHT22;38747;53.140;6.498;2023-02-17T03:44:40;8.90;99.90
52879;DHT22;38747;53.140;6.498;2023-02-17T03:47:07;8.90;99.90
52879;DHT22;38747;53.140;6.498;2023-02-17T03:49:32;8.90;99.90
52879;DHT22;38747;53.140;6.498;2023-02-17T03:51:58;8.90;99.90
52879;DHT22;38747;53.140;6.498;2023-02-17T03:54:24;9.00;99.90
52879;DHT22;38747;53.140;6.498;2023-02-17T03:56:50;8.90;99.90
52879;DHT22;38747;53.140;6.498;2023-02-17T03:59:16;8.90;99.90
52879;DHT22;38747;53.140;6.498;2023-02-17T04:01:41;9.00;99.90
52879;DHT22;38747;53.140;6.498;2023-02-17T04:04:07;8.90;99.90
52879;DHT22;38747;53.140;6.498;2023-02-17T04:06:33;8.90;99.90
52879;DHT22;38747;53.140;6.498;2023-02-17T04:08:58;8.90;99.90
52879;DHT22;38747;53.140;6.498;2023-02-17T04:11:24;8.90;99.90
52879;DHT22;38747;53.140;6.498;2023-02-17T04:13:50;9.00;99.90
52879;DHT22;38747;53.140;6.498;2023-02-17T04:16:15;8.90;99.90
52879;DHT22;38747;53.140;6.498;2023-02-17T04:18:41;9.00;99.90
52879;DHT22;38747;53.140;6.498;2023-02-17T04:21:07;8.90;99.90
52879;DHT22;38747;53.140;6.498;2023-02-17T04:23:36;8.90;99.90
52879;DHT22;38747;53.140;6.498;2023-02-17T04:26:02;8.90;99.90
52879;DHT22;38747;53.140;6.498;2023-02-17T04:28:28;8.90;99.90
52879;DHT22;38747;53.140;6.498;2023-02-17T04:30:57;9.00;99.90
52879;DHT22;38747;53.140;6.498;2023-02-17T04:33:23;8.90;99.90
52879;DHT22;38747;53.140;6.498;2023-02-17T04:35:49;8.90;99.90
52879;DHT22;38747;53.140;6.498;2023-02-17T04:38:15;8.90;99.90
52879;DHT22;38747;53.140;6.498;2023-02-17T04:40:41;8.80;99.90
52879;DHT22;38747;53.140;6.498;2023-02-17T04:43:07;8.90;99.90
52879;DHT22;38747;53.140;6.498;2023-02-17T04:45:34;8.90;99.90
52879;DHT22;38747;53.140;6.498;2023-02-17T04:48:00;8.80;99.90
52879;DHT22;38747;53.140;6.498;2023-02-17T04:50:26;8.80;99.90
52879;DHT22;38747;53.140;6.498;2023-02-17T04:52:52;8.80;99.90
52879;DHT22;38747;53.140;6.498;2023-02-17T04:55:17;8.80;99.90
52879;DHT22;38747;53.140;6.498;2023-02-17T04:57:43;8.80;99.90
52879;DHT22;38747;53.140;6.498;2023-02-17T05:00:09;8.80;99.90
52879;DHT22;38747;53.140;6.498;2023-02-17T05:02:35;8.80;99.90
52879;DHT22;38747;53.140;6.498;2023-02-17T05:05:01;8.80;99.90
52879;DHT22;38747;53.140;6.498;2023-02-17T05:07:26;8.80;99.90
52879;DHT22;38747;53.140;6.498;2023-02-17T05:09:52;8.70;99.90
52879;DHT22;38747;53.140;6.498;2023-02-17T05:12:19;8.80;99.90
52879;DHT22;38747;53.140;6.498;2023-02-17T05:14:44;8.70;99.90
52879;DHT22;38747;53.140;6.498;2023-02-17T05:17:10;8.80;99.90
52879;DHT22;38747;53.140;6.498;2023-02-17T05:19:36;8.80;99.90
52879;DHT22;38747;53.140;6.498;2023-02-17T05:22:01;8.80;99.90
52879;DHT22;38747;53.140;6.498;2023-02-17T05:24:27;8.80;99.90
52879;DHT22;38747;53.140;6.498;2023-02-17T05:26:52;8.70;99.90
52879;DHT22;38747;53.140;6.498;2023-02-17T05:29:18;8.80;99.90
52879;DHT22;38747;53.140;6.498;2023-02-17T05:31:44;8.70;99.90
52879;DHT22;38747;53.140;6.498;2023-02-17T05:34:09;8.70;99.90
52879;DHT22;38747;53.140;6.498;2023-02-17T05:36:35;8.70;99.90
52879;DHT22;38747;53.140;6.498;2023-02-17T05:39:01;8.70;99.90
52879;DHT22;38747;53.140;6.498;2023-02-17T05:41:26;8.70;99.90
52879;DHT22;38747;53.140;6.498;2023-02-17T05:43:53;8.70;99.90
52879;DHT22;38747;53.140;6.498;2023-02-17T05:46:19;8.70;99.90
52879;DHT22;38747;53.140;6.498;2023-02-17T05:48:44;8.70;99.90
52879;DHT22;38747;53.140;6.498;2023-02-17T05:51:10;8.70;99.90
52879;DHT22;38747;53.140;6.498;2023-02-17T05:53:38;8.70;99.90
52879;DHT22;38747;53.140;6.498;2023-02-17T05:56:04;8.70;99.90
52879;DHT22;38747;53.140;6.498;2023-02-17T05:58:30;8.70;99.90
52879;DHT22;38747;53.140;6.498;2023-02-17T06:00:55;8.70;99.90
52879;DHT22;38747;53.140;6.498;2023-02-17T06:03:21;8.70;99.90
52879;DHT22;38747;53.140;6.498;2023-02-17T06:05:47;8.70;99.90
52879;DHT22;38747;53.140;6.498;2023-02-17T06:08:12;8.70;99.90
52879;DHT22;38747;53.140;6.498;2023-02-17T06:10:38;8.70;99.90
52879;DHT22;38747;53.140;6.498;2023-02-17T06:13:05;8.70;99.90
52879;DHT22;38747;53.140;6.498;2023-02-17T06:15:30;8.70;99.90
52879;DHT22;38747;53.140;6.498;2023-02-17T06:17:56;8.80;99.90
52879;DHT22;38747;53.140;6.498;2023-02-17T06:20:22;8.70;99.90
52879;DHT22;38747;53.140;6.498;2023-02-17T06:22:47;8.70;99.90
52879;DHT22;38747;53.140;6.498;2023-02-17T06:25:13;8.70;99.90
52879;DHT22;38747;53.140;6.498;2023-02-17T06:27:38;8.80;99.90
52879;DHT22;38747;53.140;6.498;2023-02-17T06:30:07;8.80;99.90
52879;DHT22;38747;53.140;6.498;2023-02-17T06:32:32;8.80;99.90
52879;DHT22;38747;53.140;6.498;2023-02-17T06:34:59;8.80;99.90
52879;DHT22;38747;53.140;6.498;2023-02-17T06:37:24;8.80;99.90
52879;DHT22;38747;53.140;6.498;2023-02-17T06:39:50;8.80;99.90
52879;DHT22;38747;53.140;6.498;2023-02-17T06:42:16;8.80;99.90
52879;DHT22;38747;53.140;6.498;2023-02-17T06:44:41;8.80;99.90
52879;DHT22;38747;53.140;6.498;2023-02-17T06:47:07;8.80;99.90
52879;DHT22;38747;53.140;6.498;2023-02-17T06:49:32;8.80;99.90
52879;DHT22;38747;53.140;6.498;2023-02-17T06:51:58;8.80;99.90
52879;DHT22;38747;53.140;6.498;2023-02-17T06:54:23;8.80;99.90
52879;DHT22;38747;53.140;6.498;2023-02-17T06:56:50;8.90;99.90
52879;DHT22;38747;53.140;6.498;2023-02-17T06:59:16;8.90;99.90
52879;DHT22;38747;53.140;6.498;2023-02-17T07:01:41;8.90;99.90
52879;DHT22;38747;53.140;6.498;2023-02-17T07:04:07;8.90;99.90
52879;DHT22;38747;53.140;6.498;2023-02-17T07:06:32;8.90;99.90
52879;DHT22;38747;53.140;6.498;2023-02-17T07:09:00;8.90;99.90
52879;DHT22;38747;53.140;6.498;2023-02-17T07:11:26;8.90;99.90
52879;DHT22;38747;53.140;6.498;2023-02-17T07:13:56;8.90;99.90
52879;DHT22;38747;53.140;6.498;2023-02-17T07:16:21;8.90;99.90
52879;DHT22;38747;53.140;6.498;2023-02-17T07:18:47;9.00;99.90
52879;DHT22;38747;53.140;6.498;2023-02-17T07:21:12;9.00;99.90
52879;DHT22;38747;53.140;6.498;2023-02-17T07:23:38;9.00;99.90
52879;DHT22;38747;53.140;6.498;2023-02-17T07:26:06;9.00;99.90
52879;DHT22;38747;53.140;6.498;2023-02-17T07:28:32;9.00;99.90
52879;DHT22;38747;53.140;6.498;2023-02-17T07:31:06;9.10;99.90
52879;DHT22;38747;53.140;6.498;2023-02-17T07:33:33;9.00;99.90
52879;DHT22;38747;53.140;6.498;2023-02-17T07:35:59;9.10;99.90
52879;DHT22;38747;53.140;6.498;2023-02-17T07:38:25;9.10;99.90
52879;DHT22;38747;53.140;6.498;2023-02-17T07:40:50;9.10;99.90
52879;DHT22;38747;53.140;6.498;2023-02-17T07:43:16;9.10;99.90
52879;DHT22;38747;53.140;6.498;2023-02-17T07:45:41;9.20;99.90
52879;DHT22;38747;53.140;6.498;2023-02-17T07:48:07;9.20;99.90
52879;DHT22;38747;53.140;6.498;2023-02-17T07:50:33;9.20;99.90
52879;DHT22;38747;53.140;6.498;2023-02-17T07:52:59;9.30;99.90
52879;DHT22;38747;53.140;6.498;2023-02-17T07:55:25;9.30;99.90
52879;DHT22;38747;53.140;6.498;2023-02-17T07:57:50;9.30;99.90
52879;DHT22;38747;53.140;6.498;2023-02-17T08:00:16;9.40;99.90
52879;DHT22;38747;53.140;6.498;2023-02-17T08:02:42;9.30;99.90
52879;DHT22;38747;53.140;6.498;2023-02-17T08:05:08;9.40;99.90
52879;DHT22;38747;53.140;6.498;2023-02-17T08:07:33;9.40;99.90
52879;DHT22;38747;53.140;6.498;2023-02-17T08:09:59;9.40;99.90
52879;DHT22;38747;53.140;6.498;2023-02-17T08:12:43;9.50;99.90
52879;DHT22;38747;53.140;6.498;2023-02-17T08:15:30;9.50;99.90
52879;DHT22;38747;53.140;6.498;2023-02-17T08:17:56;9.50;99.90
52879;DHT22;38747;53.140;6.498;2023-02-17T08:20:22;9.50;99.90
52879;DHT22;38747;53.140;6.498;2023-02-17T08:22:48;9.60;99.90
52879;DHT22;38747;53.140;6.498;2023-02-17T08:25:14;9.60;99.90
52879;DHT22;38747;53.140;6.498;2023-02-17T08:27:39;9.60;99.90
52879;DHT22;38747;53.140;6.498;2023-02-17T08:30:05;9.60;99.90
52879;DHT22;38747;53.140;6.498;2023-02-17T08:32:31;9.70;99.90
52879;DHT22;38747;53.140;6.498;2023-02-17T08:34:57;9.70;99.90
52879;DHT22;38747;53.140;6.498;2023-02-17T08:37:23;9.70;99.90
52879;DHT22;38747;53.140;6.498;2023-02-17T08:39:48;9.80;99.90
52879;DHT22;38747;53.140;6.498;2023-02-17T08:42:14;9.80;99.90
52879;DHT22;38747;53.140;6.498;2023-02-17T08:44:39;9.90;99.90
52879;DHT22;38747;53.140;6.498;2023-02-17T08:47:05;9.90;99.90
52879;DHT22;38747;53.140;6.498;2023-02-17T08:49:31;9.90;99.90
52879;DHT22;38747;53.140;6.498;2023-02-17T08:51:57;9.90;99.90
52879;DHT22;38747;53.140;6.498;2023-02-17T08:54:23;9.90;99.90
52879;DHT22;38747;53.140;6.498;2023-02-17T08:56:49;10.00;99.90
52879;DHT22;38747;53.140;6.498;2023-02-17T08:59:15;10.00;99.90
52879;DHT22;38747;53.140;6.498;2023-02-17T09:01:41;10.00;99.90
52879;DHT22;38747;53.140;6.498;2023-02-17T09:04:09;10.00;99.90
52879;DHT22;38747;53.140;6.498;2023-02-17T09:06:39;10.10;99.90
52879;DHT22;38747;53.140;6.498;2023-02-17T09:09:07;10.10;99.90
52879;DHT22;38747;53.140;6.498;2023-02-17T09:11:33;10.10;99.90
52879;DHT22;38747;53.140;6.498;2023-02-17T09:13:59;10.10;99.90
52879;DHT22;38747;53.140;6.498;2023-02-17T09:16:24;10.20;99.90
52879;DHT22;38747;53.140;6.498;2023-02-17T09:18:52;10.10;99.90
52879;DHT22;38747;53.140;6.498;2023-02-17T09:21:18;10.10;99.90
52879;DHT22;38747;53.140;6.498;2023-02-17T09:23:45;10.10;99.90
52879;DHT22;38747;53.140;6.498;2023-02-17T09:26:13;10.20;99.90
52879;DHT22;38747;53.140;6.498;2023-02-17T09:28:39;10.20;99.90
52879;DHT22;38747;53.140;6.498;2023-02-17T09:31:14;10.20;99.90
52879;DHT22;38747;53.140;6.498;2023-02-17T09:33:41;10.20;99.90
52879;DHT22;38747;53.140;6.498;2023-02-17T09:36:09;10.20;99.90
52879;DHT22;38747;53.140;6.498;2023-02-17T09:38:39;10.20;99.90
52879;DHT22;38747;53.140;6.498;2023-02-17T09:41:25;10.30;99.90
52879;DHT22;38747;53.140;6.498;2023-02-17T09:43:52;10.30;99.90
52879;DHT22;38747;53.140;6.498;2023-02-17T09:46:23;10.30;99.90
52879;DHT22;38747;53.140;6.498;2023-02-17T09:48:51;10.30;99.90
52879;DHT22;38747;53.140;6.498;2023-02-17T09:51:32;10.40;99.90
52879;DHT22;38747;53.140;6.498;2023-02-17T09:56:48;10.40;99.90
52879;DHT22;38747;53.140;6.498;2023-02-17T09:59:38;10.40;99.90
52879;DHT22;38747;53.140;6.498;2023-02-17T10:02:12;10.40;99.90
52879;DHT22;38747;53.140;6.498;2023-02-17T10:04:43;10.50;99.90
52879;DHT22;38747;53.140;6.498;2023-02-17T10:10:37;10.50;99.90
52879;DHT22;38747;53.140;6.498;2023-02-17T10:13:01;10.60;99.90
52879;DHT22;38747;53.140;6.498;2023-02-17T10:15:30;10.60;99.90
52879;DHT22;38747;53.140;6.498;2023-02-17T10:18:29;10.60;99.90
52879;DHT22;38747;53.140;6.498;2023-02-17T10:21:16;10.60;99.90
52879;DHT22;38747;53.140;6.498;2023-02-17T10:23:46;10.50;99.90
52879;DHT22;38747;53.140;6.498;2023-02-17T10:29:03;10.50;99.90
52879;DHT22;38747;53.140;6.498;2023-02-17T10:42:03;10.50;99.90
52879;DHT22;38747;53.140;6.498;2023-02-17T10:44:31;10.50;99.90
52879;DHT22;38747;53.140;6.498;2023-02-17T10:46:58;10.50;99.90
52879;DHT22;38747;53.140;6.498;2023-02-17T10:49:43;10.60;99.90
52879;DHT22;38747;53.140;6.498;2023-02-17T10:52:19;10.60;99.90
52879;DHT22;38747;53.140;6.498;2023-02-17T10:57:32;10.60;99.90
52879;DHT22;38747;53.140;6.498;2023-02-17T10:59:59;10.60;99.90
52879;DHT22;38747;53.140;6.498;2023-02-17T11:02:39;10.60;99.90
52879;DHT22;38747;53.140;6.498;2023-02-17T11:05:06;10.70;99.90
52879;DHT22;38747;53.140;6.498;2023-02-17T11:07:36;10.60;99.90
52879;DHT22;38747;53.140;6.498;2023-02-17T11:10:31;10.60;99.90
52879;DHT22;38747;53.140;6.498;2023-02-17T11:12:58;10.70;99.90
52879;DHT22;38747;53.140;6.498;2023-02-17T11:15:36;10.70;99.90
52879;DHT22;38747;53.140;6.498;2023-02-17T11:18:19;10.70;99.90
52879;DHT22;38747;53.140;6.498;2023-02-17T11:20:46;10.70;99.90
52879;DHT22;38747;53.140;6.498;2023-02-17T11:25:42;10.80;99.90
52879;DHT22;38747;53.140;6.498;2023-02-17T11:28:21;10.80;99.90
52879;DHT22;38747;53.140;6.498;2023-02-17T11:30:50;10.90;99.90
52879;DHT22;38747;53.140;6.498;2023-02-17T11:33:23;10.90;99.90
52879;DHT22;38747;53.140;6.498;2023-02-17T11:35:53;10.90;99.90
52879;DHT22;38747;53.140;6.498;2023-02-17T11:38:24;11.00;99.90
52879;DHT22;38747;53.140;6.498;2023-02-17T11:40:57;11.10;99.90
52879;DHT22;38747;53.140;6.498;2023-02-17T11:43:24;11.20;99.90
52879;DHT22;38747;53.140;6.498;2023-02-17T11:51:56;11.40;99.90
52879;DHT22;38747;53.140;6.498;2023-02-17T11:57:38;11.50;99.90
52879;DHT22;38747;53.140;6.498;2023-02-17T12:22:28;11.60;99.90
52879;DHT22;38747;53.140;6.498;2023-02-17T12:27:39;11.60;99.90
52879;DHT22;38747;53.140;6.498;2023-02-17T12:32:55;11.60;99.90
52879;DHT22;38747;53.140;6.498;2023-02-17T12:35:46;11.60;99.90
52879;DHT22;38747;53.140;6.498;2023-02-17T12:38:17;11.50;99.90
52879;DHT22;38747;53.140;6.498;2023-02-17T12:40:56;11.50;99.90
52879;DHT22;38747;53.140;6.498;2023-02-17T12:43:31;11.50;99.90
52879;DHT22;38747;53.140;6.498;2023-02-17T12:46:03;11.50;99.90
52879;DHT22;38747;53.140;6.498;2023-02-17T12:48:37;11.50;99.90
52879;DHT22;38747;53.140;6.498;2023-02-17T12:51:12;11.60;99.90
52879;DHT22;38747;53.140;6.498;2023-02-17T12:53:57;11.70;99.90
52879;DHT22;38747;53.140;6.498;2023-02-17T12:56:45;11.80;99.90
52879;DHT22;38747;53.140;6.498;2023-02-17T12:59:15;11.80;99.90
52879;DHT22;38747;53.140;6.498;2023-02-17T13:01:48;11.80;99.90
52879;DHT22;38747;53.140;6.498;2023-02-17T13:04:17;11.90;99.90
52879;DHT22;38747;53.140;6.498;2023-02-17T13:06:50;11.90;99.90
52879;DHT22;38747;53.140;6.498;2023-02-17T13:09:30;11.90;99.90
52879;DHT22;38747;53.140;6.498;2023-02-17T13:12:16;11.90;99.90
52879;DHT22;38747;53.140;6.498;2023-02-17T13:14:47;11.90;99.90
52879;DHT22;38747;53.140;6.498;2023-02-17T13:22:29;12.00;99.90
52879;DHT22;38747;53.140;6.498;2023-02-17T13:24:54;12.00;99.90
52879;DHT22;38747;53.140;6.498;2023-02-17T13:27:21;12.00;99.90
52879;DHT22;38747;53.140;6.498;2023-02-17T13:30:03;12.10;99.90
52879;DHT22;38747;53.140;6.498;2023-02-17T13:32:33;12.10;99.90
52879;DHT22;38747;53.140;6.498;2023-02-17T13:35:01;12.10;99.90
52879;DHT22;38747;53.140;6.498;2023-02-17T13:43:08;12.20;99.90
52879;DHT22;38747;53.140;6.498;2023-02-17T13:45:47;12.20;99.90
52879;DHT22;38747;53.140;6.498;2023-02-17T13:48:23;12.20;99.90
52879;DHT22;38747;53.140;6.498;2023-02-17T13:50:53;12.30;99.90
52879;DHT22;38747;53.140;6.498;2023-02-17T13:53:32;12.40;99.90
52879;DHT22;38747;53.140;6.498;2023-02-17T13:58:33;12.60;99.90
52879;DHT22;38747;53.140;6.498;2023-02-17T14:01:00;12.60;99.90
52879;DHT22;38747;53.140;6.498;2023-02-17T14:03:33;12.70;99.90
52879;DHT22;38747;53.140;6.498;2023-02-17T14:06:01;12.70;99.90
52879;DHT22;38747;53.140;6.498;2023-02-17T14:08:36;12.70;99.90
52879;DHT22;38747;53.140;6.498;2023-02-17T14:11:15;12.80;99.90
52879;DHT22;38747;53.140;6.498;2023-02-17T14:13:45;12.80;99.90
52879;DHT22;38747;53.140;6.498;2023-02-17T14:16:27;12.80;99.90
52879;DHT22;38747;53.140;6.498;2023-02-17T14:19:11;12.70;99.90
52879;DHT22;38747;53.140;6.498;2023-02-17T14:22:04;12.60;99.90
52879;DHT22;38747;53.140;6.498;2023-02-17T14:24:32;12.50;99.90
52879;DHT22;38747;53.140;6.498;2023-02-17T14:27:00;12.40;99.90
52879;DHT22;38747;53.140;6.498;2023-02-17T14:29:41;12.20;99.90
52879;DHT22;38747;53.140;6.498;2023-02-17T14:32:24;12.10;99.90
52879;DHT22;38747;53.140;6.498;2023-02-17T14:34:50;12.10;99.90
52879;DHT22;38747;53.140;6.498;2023-02-17T14:37:23;12.00;99.90
52879;DHT22;38747;53.140;6.498;2023-02-17T14:39:50;11.90;99.90
52879;DHT22;38747;53.140;6.498;2023-02-17T14:42:15;11.80;99.90
52879;DHT22;38747;53.140;6.498;2023-02-17T14:44:41;11.80;99.90
52879;DHT22;38747;53.140;6.498;2023-02-17T14:47:07;11.70;99.90
52879;DHT22;38747;53.140;6.498;2023-02-17T14:49:33;11.70;99.90
52879;DHT22;38747;53.140;6.498;2023-02-17T14:52:00;11.60;99.90
52879;DHT22;38747;53.140;6.498;2023-02-17T14:54:35;11.70;99.90
52879;DHT22;38747;53.140;6.498;2023-02-17T14:57:06;11.80;99.90
52879;DHT22;38747;53.140;6.498;2023-02-17T14:59:32;11.80;99.90
52879;DHT22;38747;53.140;6.498;2023-02-17T15:01:58;11.90;99.90
52879;DHT22;38747;53.140;6.498;2023-02-17T15:04:24;11.90;99.90
52879;DHT22;38747;53.140;6.498;2023-02-17T15:06:51;11.90;99.90
52879;DHT22;38747;53.140;6.498;2023-02-17T15:09:27;11.80;99.90
52879;DHT22;38747;53.140;6.498;2023-02-17T15:11:53;11.80;99.90
52879;DHT22;38747;53.140;6.498;2023-02-17T15:14:20;11.80;99.90
52879;DHT22;38747;53.140;6.498;2023-02-17T15:16:46;11.70;99.90
52879;DHT22;38747;53.140;6.498;2023-02-17T15:19:14;11.80;99.90
52879;DHT22;38747;53.140;6.498;2023-02-17T15:21:48;11.80;99.90
52879;DHT22;38747;53.140;6.498;2023-02-17T15:24:23;11.70;99.90
52879;DHT22;38747;53.140;6.498;2023-02-17T15:26:49;11.70;99.90
52879;DHT22;38747;53.140;6.498;2023-02-17T15:29:20;11.70;99.90
52879;DHT22;38747;53.140;6.498;2023-02-17T15:31:47;11.70;99.90
52879;DHT22;38747;53.140;6.498;2023-02-17T15:34:15;11.60;99.90
52879;DHT22;38747;53.140;6.498;2023-02-17T15:36:41;11.50;99.90
52879;DHT22;38747;53.140;6.498;2023-02-17T15:39:09;11.40;99.90
52879;DHT22;38747;53.140;6.498;2023-02-17T15:41:36;11.30;99.90
52879;DHT22;38747;53.140;6.498;2023-02-17T15:44:02;11.20;99.90
52879;DHT22;38747;53.140;6.498;2023-02-17T15:46:30;11.10;99.90
52879;DHT22;38747;53.140;6.498;2023-02-17T15:48:57;11.00;99.90
52879;DHT22;38747;53.140;6.498;2023-02-17T15:51:23;10.90;99.90
52879;DHT22;38747;53.140;6.498;2023-02-17T15:53:49;10.90;99.90
52879;DHT22;38747;53.140;6.498;2023-02-17T15:56:18;10.90;99.90
52879;DHT22;38747;53.140;6.498;2023-02-17T15:58:46;10.80;99.90
52879;DHT22;38747;53.140;6.498;2023-02-17T16:01:25;10.70;99.90
52879;DHT22;38747;53.140;6.498;2023-02-17T16:03:51;10.70;99.90
52879;DHT22;38747;53.140;6.498;2023-02-17T16:06:18;10.60;99.90
52879;DHT22;38747;53.140;6.498;2023-02-17T16:08:44;10.60;99.90
52879;DHT22;38747;53.140;6.498;2023-02-17T16:11:12;10.60;99.90
52879;DHT22;38747;53.140;6.498;2023-02-17T16:13:39;10.50;99.90
52879;DHT22;38747;53.140;6.498;2023-02-17T16:16:18;10.50;99.90
52879;DHT22;38747;53.140;6.498;2023-02-17T16:18:45;10.40;99.90
52879;DHT22;38747;53.140;6.498;2023-02-17T16:21:11;10.40;99.90
52879;DHT22;38747;53.140;6.498;2023-02-17T16:23:37;10.30;99.90
52879;DHT22;38747;53.140;6.498;2023-02-17T16:26:03;10.20;99.90
52879;DHT22;38747;53.140;6.498;2023-02-17T16:28:29;10.20;99.90
52879;DHT22;38747;53.140;6.498;2023-02-17T16:30:56;10.10;99.90
52879;DHT22;38747;53.140;6.498;2023-02-17T16:33:22;10.10;99.90
52879;DHT22;38747;53.140;6.498;2023-02-17T16:35:49;10.00;99.90
52879;DHT22;38747;53.140;6.498;2023-02-17T16:38:19;9.90;99.90
52879;DHT22;38747;53.140;6.498;2023-02-17T16:40:47;9.90;99.90
52879;DHT22;38747;53.140;6.498;2023-02-17T16:43:19;9.80;99.90
52879;DHT22;38747;53.140;6.498;2023-02-17T16:45:57;9.70;99.90
52879;DHT22;38747;53.140;6.498;2023-02-17T16:48:27;9.70;99.90
52879;DHT22;38747;53.140;6.498;2023-02-17T16:50:53;9.60;99.90
52879;DHT22;38747;53.140;6.498;2023-02-17T16:53:19;9.50;99.90
52879;DHT22;38747;53.140;6.498;2023-02-17T16:55:45;9.50;99.90
52879;DHT22;38747;53.140;6.498;2023-02-17T16:58:20;9.40;99.90
52879;DHT22;38747;53.140;6.498;2023-02-17T17:00:48;9.40;99.90
52879;DHT22;38747;53.140;6.498;2023-02-17T17:03:16;9.40;99.90
52879;DHT22;38747;53.140;6.498;2023-02-17T17:05:42;9.30;99.90
52879;DHT22;38747;53.140;6.498;2023-02-17T17:08:12;9.30;99.90
52879;DHT22;38747;53.140;6.498;2023-02-17T17:10:41;9.30;99.90
52879;DHT22;38747;53.140;6.498;2023-02-17T17:13:07;9.20;99.90
52879;DHT22;38747;53.140;6.498;2023-02-17T17:15:37;9.20;99.90
52879;DHT22;38747;53.140;6.498;2023-02-17T17:18:07;9.20;99.90
52879;DHT22;38747;53.140;6.498;2023-02-17T17:20:37;9.10;99.90
52879;DHT22;38747;53.140;6.498;2023-02-17T17:23:10;9.00;99.90
52879;DHT22;38747;53.140;6.498;2023-02-17T17:25:40;9.00;99.90
52879;DHT22;38747;53.140;6.498;2023-02-17T17:28:15;9.00;99.90